sensor_id;sensor_type;location;lat;lon;timestamp;P1;durP1;ratioP1;P2;durP2;ratioP2
19679;SDS011;9989;48.962;9.182;2023-10-13T00:01:47;19.67;;;11.20;;
19679;SDS011;9989;48.962;9.182;2023-10-13T00:04:16;17.93;;;10.60;;
19679;SDS011;9989;48.962;9.182;2023-10-13T00:06:42;17.60;;;10.73;;
19679;SDS011;9989;48.962;9.182;2023-10-13T00:09:08;17.53;;;10.17;;
19679;SDS011;9989;48.962;9.182;2023-10-13T00:11:40;23.50;;;11.20;;
19679;SDS011;9989;48.962;9.182;2023-10-13T00:14:09;20.30;;;10.73;;
19679;SDS011;9989;48.962;9.182;2023-10-13T00:16:36;18.17;;;10.90;;
19679;SDS011;9989;48.962;9.182;2023-10-13T00:19:04;19.70;;;10.73;;
19679;SDS011;9989;48.962;9.182;2023-10-13T00:21:30;17.00;;;10.97;;
19679;SDS011;9989;48.962;9.182;2023-10-13T00:23:56;19.80;;;11.30;;
19679;SDS011;9989;48.962;9.182;2023-10-13T00:26:26;15.47;;;9.73;;
19679;SDS011;9989;48.962;9.182;2023-10-13T00:28:56;22.27;;;11.20;;
19679;SDS011;9989;48.962;9.182;2023-10-13T00:31:36;17.90;;;10.83;;
19679;SDS011;9989;48.962;9.182;2023-10-13T00:34:03;19.27;;;11.23;;
19679;SDS011;9989;48.962;9.182;2023-10-13T00:36:41;18.47;;;10.47;;
19679;SDS011;9989;48.962;9.182;2023-10-13T00:39:14;19.90;;;10.90;;
19679;SDS011;9989;48.962;9.182;2023-10-13T00:41:43;20.73;;;10.53;;
19679;SDS011;9989;48.962;9.182;2023-10-13T00:44:17;19.53;;;11.17;;
19679;SDS011;9989;48.962;9.182;2023-10-13T00:47:06;15.83;;;10.20;;
19679;SDS011;9989;48.962;9.182;2023-10-13T00:49:35;19.00;;;10.37;;
19679;SDS011;9989;48.962;9.182;2023-10-13T00:52:07;22.27;;;11.07;;
19679;SDS011;9989;48.962;9.182;2023-10-13T00:54:36;22.37;;;11.97;;
19679;SDS011;9989;48.962;9.182;2023-10-13T00:57:03;19.43;;;10.47;;
19679;SDS011;9989;48.962;9.182;2023-10-13T00:59:48;19.47;;;11.80;;
19679;SDS011;9989;48.962;9.182;2023-10-13T01:02:16;19.37;;;10.87;;
19679;SDS011;9989;48.962;9.182;2023-10-13T01:05:00;19.97;;;10.67;;
19679;SDS011;9989;48.962;9.182;2023-10-13T01:07:27;18.40;;;11.20;;
19679;SDS011;9989;48.962;9.182;2023-10-13T01:09:53;18.43;;;10.80;;
19679;SDS011;9989;48.962;9.182;2023-10-13T01:12:19;20.23;;;11.43;;
19679;SDS011;9989;48.962;9.182;2023-10-13T01:14:45;18.93;;;10.63;;
19679;SDS011;9989;48.962;9.182;2023-10-13T01:17:11;17.10;;;10.53;;
19679;SDS011;9989;48.962;9.182;2023-10-13T01:19:36;18.07;;;10.73;;
19679;SDS011;9989;48.962;9.182;2023-10-13T01:22:08;17.13;;;10.57;;
19679;SDS011;9989;48.962;9.182;2023-10-13T01:24:34;16.27;;;10.97;;
19679;SDS011;9989;48.962;9.182;2023-10-13T01:27:03;16.87;;;11.30;;
19679;SDS011;9989;48.962;9.182;2023-10-13T01:29:42;20.00;;;10.73;;
19679;SDS011;9989;48.962;9.182;2023-10-13T01:32:13;19.77;;;9.67;;
19679;SDS011;9989;48.962;9.182;2023-10-13T01:34:43;14.93;;;9.73;;
19679;SDS011;9989;48.962;9.182;2023-10-13T01:37:13;18.33;;;9.80;;
19679;SDS011;9989;48.962;9.182;2023-10-13T01:39:41;16.80;;;9.13;;
19679;SDS011;9989;48.962;9.182;2023-10-13T01:42:06;17.27;;;10.33;;
19679;SDS011;9989;48.962;9.182;2023-10-13T01:44:32;17.30;;;10.13;;
19679;SDS011;9989;48.962;9.182;2023-10-13T01:46:58;16.60;;;9.90;;
19679;SDS011;9989;48.962;9.182;2023-10-13T01:49:31;16.37;;;10.07;;
19679;SDS011;9989;48.962;9.182;2023-10-13T01:52:12;18.13;;;9.57;;
19679;SDS011;9989;48.962;9.182;2023-10-13T01:54:41;15.90;;;9.83;;
19679;SDS011;9989;48.962;9.182;2023-10-13T01:57:09;19.37;;;10.10;;
19679;SDS011;9989;48.962;9.182;2023-10-13T01:59:45;15.80;;;9.83;;
19679;SDS011;9989;48.962;9.182;2023-10-13T02:02:13;18.43;;;10.77;;
19679;SDS011;9989;48.962;9.182;2023-10-13T02:04:40;19.10;;;10.43;;
19679;SDS011;9989;48.962;9.182;2023-10-13T02:07:20;16.30;;;9.67;;
19679;SDS011;9989;48.962;9.182;2023-10-13T02:09:45;16.80;;;9.67;;
19679;SDS011;9989;48.962;9.182;2023-10-13T02:12:12;19.23;;;10.47;;
19679;SDS011;9989;48.962;9.182;2023-10-13T02:14:39;18.27;;;9.90;;
19679;SDS011;9989;48.962;9.182;2023-10-13T02:17:07;16.97;;;10.43;;
19679;SDS011;9989;48.962;9.182;2023-10-13T02:19:42;19.03;;;9.73;;
19679;SDS011;9989;48.962;9.182;2023-10-13T02:22:13;21.30;;;11.77;;
19679;SDS011;9989;48.962;9.182;2023-10-13T02:25:05;17.53;;;10.17;;
19679;SDS011;9989;48.962;9.182;2023-10-13T02:27:35;16.27;;;10.27;;
19679;SDS011;9989;48.962;9.182;2023-10-13T02:30:06;17.17;;;11.03;;
19679;SDS011;9989;48.962;9.182;2023-10-13T02:32:38;16.27;;;9.20;;
19679;SDS011;9989;48.962;9.182;2023-10-13T02:35:08;17.40;;;10.17;;
19679;SDS011;9989;48.962;9.182;2023-10-13T02:37:40;16.73;;;9.80;;
19679;SDS011;9989;48.962;9.182;2023-10-13T02:40:09;16.13;;;9.63;;
19679;SDS011;9989;48.962;9.182;2023-10-13T02:42:37;17.00;;;9.20;;
19679;SDS011;9989;48.962;9.182;2023-10-13T02:45:04;18.83;;;10.17;;
19679;SDS011;9989;48.962;9.182;2023-10-13T02:47:30;19.17;;;11.13;;
19679;SDS011;9989;48.962;9.182;2023-10-13T02:49:57;19.10;;;10.30;;
19679;SDS011;9989;48.962;9.182;2023-10-13T02:52:26;19.13;;;11.07;;
19679;SDS011;9989;48.962;9.182;2023-10-13T02:54:52;19.80;;;11.57;;
19679;SDS011;9989;48.962;9.182;2023-10-13T02:57:17;18.63;;;10.37;;
19679;SDS011;9989;48.962;9.182;2023-10-13T02:59:44;16.67;;;9.57;;
19679;SDS011;9989;48.962;9.182;2023-10-13T03:02:13;17.63;;;10.13;;
19679;SDS011;9989;48.962;9.182;2023-10-13T03:04:49;20.30;;;11.40;;
19679;SDS011;9989;48.962;9.182;2023-10-13T03:07:15;18.37;;;10.00;;
19679;SDS011;9989;48.962;9.182;2023-10-13T03:09:44;17.23;;;10.23;;
19679;SDS011;9989;48.962;9.182;2023-10-13T03:12:16;19.13;;;9.70;;
19679;SDS011;9989;48.962;9.182;2023-10-13T03:14:42;19.53;;;10.07;;
19679;SDS011;9989;48.962;9.182;2023-10-13T03:17:12;18.13;;;9.80;;
19679;SDS011;9989;48.962;9.182;2023-10-13T03:19:42;18.63;;;10.27;;
19679;SDS011;9989;48.962;9.182;2023-10-13T03:22:14;14.90;;;9.07;;
19679;SDS011;9989;48.962;9.182;2023-10-13T03:24:42;16.47;;;10.00;;
19679;SDS011;9989;48.962;9.182;2023-10-13T03:27:12;19.47;;;9.73;;
19679;SDS011;9989;48.962;9.182;2023-10-13T03:30:03;15.63;;;9.30;;
19679;SDS011;9989;48.962;9.182;2023-10-13T03:32:35;15.50;;;9.13;;
19679;SDS011;9989;48.962;9.182;2023-10-13T03:35:07;16.30;;;9.50;;
19679;SDS011;9989;48.962;9.182;2023-10-13T03:37:48;18.13;;;9.87;;
19679;SDS011;9989;48.962;9.182;2023-10-13T03:40:14;13.47;;;8.70;;
19679;SDS011;9989;48.962;9.182;2023-10-13T03:42:46;14.70;;;8.57;;
19679;SDS011;9989;48.962;9.182;2023-10-13T03:45:33;14.93;;;8.00;;
19679;SDS011;9989;48.962;9.182;2023-10-13T03:48:07;14.47;;;8.73;;
19679;SDS011;9989;48.962;9.182;2023-10-13T03:50:37;14.67;;;8.60;;
19679;SDS011;9989;48.962;9.182;2023-10-13T03:53:22;13.50;;;8.27;;
19679;SDS011;9989;48.962;9.182;2023-10-13T03:55:50;15.47;;;8.67;;
19679;SDS011;9989;48.962;9.182;2023-10-13T03:58:32;17.07;;;9.30;;
19679;SDS011;9989;48.962;9.182;2023-10-13T04:00:59;13.83;;;8.57;;
19679;SDS011;9989;48.962;9.182;2023-10-13T04:03:25;17.13;;;9.10;;
19679;SDS011;9989;48.962;9.182;2023-10-13T04:05:58;18.37;;;8.50;;
19679;SDS011;9989;48.962;9.182;2023-10-13T04:08:31;15.90;;;8.90;;
19679;SDS011;9989;48.962;9.182;2023-10-13T04:11:32;16.47;;;8.80;;
19679;SDS011;9989;48.962;9.182;2023-10-13T04:14:26;14.70;;;9.10;;
19679;SDS011;9989;48.962;9.182;2023-10-13T04:17:12;16.80;;;9.20;;
19679;SDS011;9989;48.962;9.182;2023-10-13T04:19:41;15.77;;;9.50;;
19679;SDS011;9989;48.962;9.182;2023-10-13T04:22:28;16.73;;;9.07;;
19679;SDS011;9989;48.962;9.182;2023-10-13T04:27:58;20.20;;;9.17;;
19679;SDS011;9989;48.962;9.182;2023-10-13T04:30:46;14.20;;;7.83;;
19679;SDS011;9989;48.962;9.182;2023-10-13T04:33:21;16.00;;;8.70;;
19679;SDS011;9989;48.962;9.182;2023-10-13T04:36:12;15.43;;;8.23;;
19679;SDS011;9989;48.962;9.182;2023-10-13T04:38:45;16.03;;;8.57;;
19679;SDS011;9989;48.962;9.182;2023-10-13T04:41:25;15.33;;;8.37;;
19679;SDS011;9989;48.962;9.182;2023-10-13T04:43:57;15.33;;;8.40;;
19679;SDS011;9989;48.962;9.182;2023-10-13T04:46:44;14.97;;;8.70;;
19679;SDS011;9989;48.962;9.182;2023-10-13T04:49:12;15.43;;;8.83;;
19679;SDS011;9989;48.962;9.182;2023-10-13T04:54:36;18.53;;;9.77;;
19679;SDS011;9989;48.962;9.182;2023-10-13T04:57:19;17.03;;;8.57;;
19679;SDS011;9989;48.962;9.182;2023-10-13T05:00:05;16.80;;;9.67;;
19679;SDS011;9989;48.962;9.182;2023-10-13T05:02:41;18.77;;;9.13;;
19679;SDS011;9989;48.962;9.182;2023-10-13T05:05:26;16.20;;;8.70;;
19679;SDS011;9989;48.962;9.182;2023-10-13T05:08:10;17.73;;;9.07;;
19679;SDS011;9989;48.962;9.182;2023-10-13T05:10:55;16.60;;;8.67;;
19679;SDS011;9989;48.962;9.182;2023-10-13T05:13:39;15.00;;;9.43;;
19679;SDS011;9989;48.962;9.182;2023-10-13T05:16:23;17.97;;;9.03;;
19679;SDS011;9989;48.962;9.182;2023-10-13T05:19:07;15.30;;;9.70;;
19679;SDS011;9989;48.962;9.182;2023-10-13T05:21:51;12.73;;;8.53;;
19679;SDS011;9989;48.962;9.182;2023-10-13T05:24:35;15.47;;;9.27;;
19679;SDS011;9989;48.962;9.182;2023-10-13T05:27:19;15.13;;;9.37;;
19679;SDS011;9989;48.962;9.182;2023-10-13T05:30:05;15.30;;;8.70;;
19679;SDS011;9989;48.962;9.182;2023-10-13T05:32:49;22.23;;;8.77;;
19679;SDS011;9989;48.962;9.182;2023-10-13T05:35:34;18.33;;;8.20;;
19679;SDS011;9989;48.962;9.182;2023-10-13T05:38:18;14.43;;;8.40;;
19679;SDS011;9989;48.962;9.182;2023-10-13T05:41:03;18.27;;;8.73;;
19679;SDS011;9989;48.962;9.182;2023-10-13T05:43:48;18.30;;;9.73;;
19679;SDS011;9989;48.962;9.182;2023-10-13T05:46:33;14.93;;;8.50;;
19679;SDS011;9989;48.962;9.182;2023-10-13T05:49:07;16.20;;;9.00;;
19679;SDS011;9989;48.962;9.182;2023-10-13T05:51:34;15.23;;;8.17;;
19679;SDS011;9989;48.962;9.182;2023-10-13T05:54:11;14.80;;;7.90;;
19679;SDS011;9989;48.962;9.182;2023-10-13T05:56:38;16.70;;;7.80;;
19679;SDS011;9989;48.962;9.182;2023-10-13T05:59:22;15.83;;;8.40;;
19679;SDS011;9989;48.962;9.182;2023-10-13T06:02:06;13.63;;;7.73;;
19679;SDS011;9989;48.962;9.182;2023-10-13T06:04:50;14.07;;;8.17;;
19679;SDS011;9989;48.962;9.182;2023-10-13T06:07:34;16.03;;;8.67;;
19679;SDS011;9989;48.962;9.182;2023-10-13T06:10:19;14.50;;;7.90;;
19679;SDS011;9989;48.962;9.182;2023-10-13T06:13:03;15.23;;;7.80;;
19679;SDS011;9989;48.962;9.182;2023-10-13T06:15:47;15.37;;;7.70;;
19679;SDS011;9989;48.962;9.182;2023-10-13T06:18:31;18.23;;;9.03;;
19679;SDS011;9989;48.962;9.182;2023-10-13T06:21:15;13.50;;;8.00;;
19679;SDS011;9989;48.962;9.182;2023-10-13T06:23:59;14.20;;;8.10;;
19679;SDS011;9989;48.962;9.182;2023-10-13T06:26:43;14.30;;;7.83;;
19679;SDS011;9989;48.962;9.182;2023-10-13T06:29:27;14.00;;;7.77;;
19679;SDS011;9989;48.962;9.182;2023-10-13T06:31:53;14.40;;;8.07;;
19679;SDS011;9989;48.962;9.182;2023-10-13T06:34:22;13.43;;;8.00;;
19679;SDS011;9989;48.962;9.182;2023-10-13T06:37:02;15.17;;;8.40;;
19679;SDS011;9989;48.962;9.182;2023-10-13T06:39:50;14.87;;;8.57;;
19679;SDS011;9989;48.962;9.182;2023-10-13T06:42:16;13.47;;;8.57;;
19679;SDS011;9989;48.962;9.182;2023-10-13T06:44:44;15.77;;;8.23;;
19679;SDS011;9989;48.962;9.182;2023-10-13T06:47:12;13.67;;;8.00;;
19679;SDS011;9989;48.962;9.182;2023-10-13T06:49:41;18.03;;;8.57;;
19679;SDS011;9989;48.962;9.182;2023-10-13T06:52:09;14.90;;;7.63;;
19679;SDS011;9989;48.962;9.182;2023-10-13T06:54:35;15.57;;;7.90;;
19679;SDS011;9989;48.962;9.182;2023-10-13T06:57:04;13.80;;;8.00;;
19679;SDS011;9989;48.962;9.182;2023-10-13T06:59:32;12.57;;;6.93;;
19679;SDS011;9989;48.962;9.182;2023-10-13T07:02:00;15.20;;;6.90;;
19679;SDS011;9989;48.962;9.182;2023-10-13T07:04:31;11.73;;;6.37;;
19679;SDS011;9989;48.962;9.182;2023-10-13T07:06:57;12.23;;;6.50;;
19679;SDS011;9989;48.962;9.182;2023-10-13T07:09:25;14.13;;;7.37;;
19679;SDS011;9989;48.962;9.182;2023-10-13T07:12:01;13.73;;;7.73;;
19679;SDS011;9989;48.962;9.182;2023-10-13T07:14:41;14.57;;;7.67;;
19679;SDS011;9989;48.962;9.182;2023-10-13T07:17:16;13.70;;;6.77;;
19679;SDS011;9989;48.962;9.182;2023-10-13T07:19:48;21.03;;;7.33;;
19679;SDS011;9989;48.962;9.182;2023-10-13T07:22:36;12.57;;;6.23;;
19679;SDS011;9989;48.962;9.182;2023-10-13T07:25:04;17.07;;;7.47;;
19679;SDS011;9989;48.962;9.182;2023-10-13T07:27:31;17.03;;;6.47;;
19679;SDS011;9989;48.962;9.182;2023-10-13T07:30:00;11.53;;;6.53;;
19679;SDS011;9989;48.962;9.182;2023-10-13T07:32:53;13.53;;;6.50;;
19679;SDS011;9989;48.962;9.182;2023-10-13T07:35:22;14.80;;;6.77;;
19679;SDS011;9989;48.962;9.182;2023-10-13T07:37:50;14.90;;;6.57;;
19679;SDS011;9989;48.962;9.182;2023-10-13T07:40:19;12.63;;;6.13;;
19679;SDS011;9989;48.962;9.182;2023-10-13T07:43:04;12.20;;;6.53;;
19679;SDS011;9989;48.962;9.182;2023-10-13T07:45:35;14.07;;;6.90;;
19679;SDS011;9989;48.962;9.182;2023-10-13T07:48:06;14.20;;;5.80;;
19679;SDS011;9989;48.962;9.182;2023-10-13T07:50:45;10.57;;;5.87;;
19679;SDS011;9989;48.962;9.182;2023-10-13T07:53:11;15.53;;;6.87;;
19679;SDS011;9989;48.962;9.182;2023-10-13T07:55:49;13.80;;;6.33;;
19679;SDS011;9989;48.962;9.182;2023-10-13T07:58:22;13.87;;;6.70;;
19679;SDS011;9989;48.962;9.182;2023-10-13T08:00:51;15.47;;;7.30;;
19679;SDS011;9989;48.962;9.182;2023-10-13T08:03:31;13.80;;;6.23;;
19679;SDS011;9989;48.962;9.182;2023-10-13T08:06:08;14.23;;;6.70;;
19679;SDS011;9989;48.962;9.182;2023-10-13T08:08:37;13.67;;;6.27;;
19679;SDS011;9989;48.962;9.182;2023-10-13T08:11:13;10.97;;;6.43;;
19679;SDS011;9989;48.962;9.182;2023-10-13T08:13:51;16.93;;;6.73;;
19679;SDS011;9989;48.962;9.182;2023-10-13T08:16:24;15.63;;;6.80;;
19679;SDS011;9989;48.962;9.182;2023-10-13T08:19:13;12.70;;;6.53;;
19679;SDS011;9989;48.962;9.182;2023-10-13T08:21:40;17.07;;;6.63;;
19679;SDS011;9989;48.962;9.182;2023-10-13T08:24:39;17.93;;;5.87;;
19679;SDS011;9989;48.962;9.182;2023-10-13T08:27:05;13.27;;;5.53;;
19679;SDS011;9989;48.962;9.182;2023-10-13T08:29:51;10.10;;;5.43;;
19679;SDS011;9989;48.962;9.182;2023-10-13T08:32:19;12.67;;;5.47;;
19679;SDS011;9989;48.962;9.182;2023-10-13T08:34:57;12.90;;;6.07;;
19679;SDS011;9989;48.962;9.182;2023-10-13T08:37:24;11.00;;;5.60;;
19679;SDS011;9989;48.962;9.182;2023-10-13T08:39:54;15.00;;;5.67;;
19679;SDS011;9989;48.962;9.182;2023-10-13T08:42:29;14.70;;;5.53;;
19679;SDS011;9989;48.962;9.182;2023-10-13T08:45:14;12.20;;;4.90;;
19679;SDS011;9989;48.962;9.182;2023-10-13T08:47:57;11.87;;;5.70;;
19679;SDS011;9989;48.962;9.182;2023-10-13T08:50:33;14.23;;;5.67;;
19679;SDS011;9989;48.962;9.182;2023-10-13T08:53:13;12.77;;;5.30;;
19679;SDS011;9989;48.962;9.182;2023-10-13T08:56:10;11.50;;;4.93;;
19679;SDS011;9989;48.962;9.182;2023-10-13T08:58:40;9.90;;;4.70;;
19679;SDS011;9989;48.962;9.182;2023-10-13T09:01:19;11.07;;;4.80;;
19679;SDS011;9989;48.962;9.182;2023-10-13T09:04:13;12.35;;;4.38;;
19679;SDS011;9989;48.962;9.182;2023-10-13T09:06:44;10.85;;;4.85;;
19679;SDS011;9989;48.962;9.182;2023-10-13T09:09:28;9.38;;;4.40;;
19679;SDS011;9989;48.962;9.182;2023-10-13T09:12:10;11.13;;;4.18;;
19679;SDS011;9989;48.962;9.182;2023-10-13T09:14:36;9.75;;;4.72;;
19679;SDS011;9989;48.962;9.182;2023-10-13T09:17:22;10.32;;;4.40;;
19679;SDS011;9989;48.962;9.182;2023-10-13T09:20:08;10.77;;;4.43;;
19679;SDS011;9989;48.962;9.182;2023-10-13T09:22:48;8.18;;;3.85;;
19679;SDS011;9989;48.962;9.182;2023-10-13T09:25:26;9.73;;;3.95;;
19679;SDS011;9989;48.962;9.182;2023-10-13T09:28:03;13.80;;;4.25;;
19679;SDS011;9989;48.962;9.182;2023-10-13T09:30:46;11.45;;;3.80;;
19679;SDS011;9989;48.962;9.182;2023-10-13T09:33:12;9.98;;;4.10;;
19679;SDS011;9989;48.962;9.182;2023-10-13T09:35:44;10.75;;;3.95;;
19679;SDS011;9989;48.962;9.182;2023-10-13T09:38:14;10.25;;;3.80;;
19679;SDS011;9989;48.962;9.182;2023-10-13T09:40:43;11.68;;;3.42;;
19679;SDS011;9989;48.962;9.182;2023-10-13T09:43:18;8.98;;;3.83;;
19679;SDS011;9989;48.962;9.182;2023-10-13T09:45:47;10.45;;;4.05;;
19679;SDS011;9989;48.962;9.182;2023-10-13T09:48:40;9.20;;;3.67;;
19679;SDS011;9989;48.962;9.182;2023-10-13T09:51:29;10.05;;;3.63;;
19679;SDS011;9989;48.962;9.182;2023-10-13T09:53:58;10.68;;;4.10;;
19679;SDS011;9989;48.962;9.182;2023-10-13T09:56:46;7.60;;;3.13;;
19679;SDS011;9989;48.962;9.182;2023-10-13T09:59:27;8.60;;;3.40;;
19679;SDS011;9989;48.962;9.182;2023-10-13T10:02:00;13.32;;;4.13;;
19679;SDS011;9989;48.962;9.182;2023-10-13T10:04:33;13.43;;;3.88;;
19679;SDS011;9989;48.962;9.182;2023-10-13T10:07:10;9.73;;;3.30;;
19679;SDS011;9989;48.962;9.182;2023-10-13T10:09:35;11.10;;;3.20;;
19679;SDS011;9989;48.962;9.182;2023-10-13T10:17:37;10.80;;;3.47;;
19679;SDS011;9989;48.962;9.182;2023-10-13T10:20:07;9.45;;;3.20;;
19679;SDS011;9989;48.962;9.182;2023-10-13T10:22:56;7.78;;;3.05;;
19679;SDS011;9989;48.962;9.182;2023-10-13T10:25:31;11.07;;;3.85;;
19679;SDS011;9989;48.962;9.182;2023-10-13T10:28:04;8.35;;;3.25;;
19679;SDS011;9989;48.962;9.182;2023-10-13T10:30:32;9.75;;;3.58;;
19679;SDS011;9989;48.962;9.182;2023-10-13T10:33:09;9.55;;;3.75;;
19679;SDS011;9989;48.962;9.182;2023-10-13T10:35:41;8.70;;;3.42;;
19679;SDS011;9989;48.962;9.182;2023-10-13T10:43:43;8.88;;;3.67;;
19679;SDS011;9989;48.962;9.182;2023-10-13T10:46:13;11.82;;;4.15;;
19679;SDS011;9989;48.962;9.182;2023-10-13T10:48:52;9.60;;;3.78;;
19679;SDS011;9989;48.962;9.182;2023-10-13T10:51:27;13.45;;;3.50;;
19679;SDS011;9989;48.962;9.182;2023-10-13T10:53:57;9.53;;;3.47;;
19679;SDS011;9989;48.962;9.182;2023-10-13T10:56:24;13.33;;;4.13;;
19679;SDS011;9989;48.962;9.182;2023-10-13T10:59:02;11.77;;;4.10;;
19679;SDS011;9989;48.962;9.182;2023-10-13T11:01:29;14.27;;;3.90;;
19679;SDS011;9989;48.962;9.182;2023-10-13T11:04:04;12.30;;;3.80;;
19679;SDS011;9989;48.962;9.182;2023-10-13T11:06:37;12.33;;;4.40;;
19679;SDS011;9989;48.962;9.182;2023-10-13T11:09:11;12.87;;;3.97;;
19679;SDS011;9989;48.962;9.182;2023-10-13T11:11:46;11.05;;;3.65;;
19679;SDS011;9989;48.962;9.182;2023-10-13T11:14:24;8.13;;;3.72;;
19679;SDS011;9989;48.962;9.182;2023-10-13T11:16:51;11.30;;;3.88;;
19679;SDS011;9989;48.962;9.182;2023-10-13T11:19:21;10.75;;;3.60;;
19679;SDS011;9989;48.962;9.182;2023-10-13T11:22:09;9.90;;;3.90;;
19679;SDS011;9989;48.962;9.182;2023-10-13T11:24:41;11.77;;;3.58;;
19679;SDS011;9989;48.962;9.182;2023-10-13T11:27:15;10.52;;;3.92;;
19679;SDS011;9989;48.962;9.182;2023-10-13T11:29:46;13.13;;;3.78;;
19679;SDS011;9989;48.962;9.182;2023-10-13T11:32:17;9.32;;;3.40;;
19679;SDS011;9989;48.962;9.182;2023-10-13T11:34:45;12.73;;;4.07;;
19679;SDS011;9989;48.962;9.182;2023-10-13T11:37:10;9.90;;;3.93;;
19679;SDS011;9989;48.962;9.182;2023-10-13T11:40:02;13.80;;;3.87;;
19679;SDS011;9989;48.962;9.182;2023-10-13T11:42:35;14.97;;;3.53;;
19679;SDS011;9989;48.962;9.182;2023-10-13T11:45:01;8.53;;;3.33;;
19679;SDS011;9989;48.962;9.182;2023-10-13T11:47:45;15.73;;;4.73;;
19679;SDS011;9989;48.962;9.182;2023-10-13T11:50:23;9.70;;;3.30;;
19679;SDS011;9989;48.962;9.182;2023-10-13T11:52:57;10.00;;;3.70;;
19679;SDS011;9989;48.962;9.182;2023-10-13T11:55:23;12.40;;;3.83;;
19679;SDS011;9989;48.962;9.182;2023-10-13T11:57:49;8.03;;;3.00;;
19679;SDS011;9989;48.962;9.182;2023-10-13T12:00:15;12.47;;;3.50;;
19679;SDS011;9989;48.962;9.182;2023-10-13T12:02:51;12.87;;;3.83;;
19679;SDS011;9989;48.962;9.182;2023-10-13T12:05:35;10.97;;;3.60;;
19679;SDS011;9989;48.962;9.182;2023-10-13T12:08:21;8.87;;;3.10;;
19679;SDS011;9989;48.962;9.182;2023-10-13T12:10:57;13.70;;;3.30;;
19679;SDS011;9989;48.962;9.182;2023-10-13T12:13:45;10.53;;;3.80;;
19679;SDS011;9989;48.962;9.182;2023-10-13T12:16:11;8.30;;;3.47;;
19679;SDS011;9989;48.962;9.182;2023-10-13T12:18:37;8.30;;;3.30;;
19679;SDS011;9989;48.962;9.182;2023-10-13T12:21:09;7.37;;;3.13;;
19679;SDS011;9989;48.962;9.182;2023-10-13T12:23:37;13.37;;;3.53;;
19679;SDS011;9989;48.962;9.182;2023-10-13T12:26:03;9.23;;;3.10;;
19679;SDS011;9989;48.962;9.182;2023-10-13T12:28:44;9.67;;;3.40;;
19679;SDS011;9989;48.962;9.182;2023-10-13T12:31:16;12.10;;;3.27;;
19679;SDS011;9989;48.962;9.182;2023-10-13T12:33:42;9.80;;;3.00;;
19679;SDS011;9989;48.962;9.182;2023-10-13T12:36:12;9.77;;;3.97;;
19679;SDS011;9989;48.962;9.182;2023-10-13T12:38:47;9.77;;;3.43;;
19679;SDS011;9989;48.962;9.182;2023-10-13T12:41:16;12.97;;;3.57;;
19679;SDS011;9989;48.962;9.182;2023-10-13T12:44:02;12.03;;;3.47;;
19679;SDS011;9989;48.962;9.182;2023-10-13T12:46:47;7.87;;;3.40;;
19679;SDS011;9989;48.962;9.182;2023-10-13T12:49:34;8.90;;;3.57;;
19679;SDS011;9989;48.962;9.182;2023-10-13T12:52:04;9.03;;;3.27;;
19679;SDS011;9989;48.962;9.182;2023-10-13T12:54:30;8.37;;;3.57;;
19679;SDS011;9989;48.962;9.182;2023-10-13T12:57:04;10.87;;;3.70;;
19679;SDS011;9989;48.962;9.182;2023-10-13T12:59:34;8.17;;;3.30;;
19679;SDS011;9989;48.962;9.182;2023-10-13T13:02:00;11.30;;;3.47;;
19679;SDS011;9989;48.962;9.182;2023-10-13T13:04:31;9.70;;;4.03;;
19679;SDS011;9989;48.962;9.182;2023-10-13T13:07:01;13.13;;;4.10;;
19679;SDS011;9989;48.962;9.182;2023-10-13T13:09:31;9.07;;;3.57;;
19679;SDS011;9989;48.962;9.182;2023-10-13T13:11:57;11.03;;;3.60;;
19679;SDS011;9989;48.962;9.182;2023-10-13T13:14:23;11.97;;;3.63;;
19679;SDS011;9989;48.962;9.182;2023-10-13T13:16:55;9.70;;;3.37;;
19679;SDS011;9989;48.962;9.182;2023-10-13T13:19:29;10.43;;;4.10;;
19679;SDS011;9989;48.962;9.182;2023-10-13T13:21:59;9.93;;;3.80;;
19679;SDS011;9989;48.962;9.182;2023-10-13T13:24:24;11.00;;;3.50;;
19679;SDS011;9989;48.962;9.182;2023-10-13T13:26:54;14.20;;;3.80;;
19679;SDS011;9989;48.962;9.182;2023-10-13T13:29:30;14.07;;;4.83;;
19679;SDS011;9989;48.962;9.182;2023-10-13T13:31:56;11.60;;;4.03;;
19679;SDS011;9989;48.962;9.182;2023-10-13T13:34:21;8.67;;;3.10;;
19679;SDS011;9989;48.962;9.182;2023-10-13T13:36:47;9.90;;;3.53;;
19679;SDS011;9989;48.962;9.182;2023-10-13T13:39:18;11.23;;;3.77;;
19679;SDS011;9989;48.962;9.182;2023-10-13T13:41:53;10.33;;;4.00;;
19679;SDS011;9989;48.962;9.182;2023-10-13T13:44:22;9.23;;;3.10;;
19679;SDS011;9989;48.962;9.182;2023-10-13T13:46:56;10.23;;;3.20;;
19679;SDS011;9989;48.962;9.182;2023-10-13T13:49:22;9.87;;;3.93;;
19679;SDS011;9989;48.962;9.182;2023-10-13T13:51:55;12.87;;;3.60;;
19679;SDS011;9989;48.962;9.182;2023-10-13T13:54:21;14.63;;;3.80;;
19679;SDS011;9989;48.962;9.182;2023-10-13T13:56:47;10.37;;;3.50;;
19679;SDS011;9989;48.962;9.182;2023-10-13T13:59:13;8.63;;;3.70;;
19679;SDS011;9989;48.962;9.182;2023-10-13T14:01:45;10.10;;;3.53;;
19679;SDS011;9989;48.962;9.182;2023-10-13T14:04:11;11.10;;;3.53;;
19679;SDS011;9989;48.962;9.182;2023-10-13T14:06:39;10.97;;;3.30;;
19679;SDS011;9989;48.962;9.182;2023-10-13T14:09:04;9.77;;;3.60;;
19679;SDS011;9989;48.962;9.182;2023-10-13T14:11:58;17.03;;;4.07;;
19679;SDS011;9989;48.962;9.182;2023-10-13T14:14:42;9.23;;;3.83;;
19679;SDS011;9989;48.962;9.182;2023-10-13T14:17:20;8.03;;;3.47;;
19679;SDS011;9989;48.962;9.182;2023-10-13T14:19:56;11.53;;;3.30;;
19679;SDS011;9989;48.962;9.182;2023-10-13T14:22:22;12.07;;;3.63;;
19679;SDS011;9989;48.962;9.182;2023-10-13T14:24:50;8.30;;;3.10;;
19679;SDS011;9989;48.962;9.182;2023-10-13T14:27:23;8.50;;;3.90;;
19679;SDS011;9989;48.962;9.182;2023-10-13T14:29:50;9.70;;;3.77;;
19679;SDS011;9989;48.962;9.182;2023-10-13T14:32:21;9.90;;;3.60;;
19679;SDS011;9989;48.962;9.182;2023-10-13T14:34:49;10.87;;;3.30;;
19679;SDS011;9989;48.962;9.182;2023-10-13T14:37:19;8.10;;;3.33;;
19679;SDS011;9989;48.962;9.182;2023-10-13T14:39:52;8.53;;;3.30;;
19679;SDS011;9989;48.962;9.182;2023-10-13T14:42:25;8.63;;;3.40;;
19679;SDS011;9989;48.962;9.182;2023-10-13T14:44:52;12.30;;;3.73;;
19679;SDS011;9989;48.962;9.182;2023-10-13T14:47:21;7.93;;;3.20;;
19679;SDS011;9989;48.962;9.182;2023-10-13T14:49:50;7.23;;;3.00;;
19679;SDS011;9989;48.962;9.182;2023-10-13T14:52:20;11.37;;;3.70;;
19679;SDS011;9989;48.962;9.182;2023-10-13T14:54:49;14.37;;;3.53;;
19679;SDS011;9989;48.962;9.182;2023-10-13T14:57:20;11.10;;;3.40;;
19679;SDS011;9989;48.962;9.182;2023-10-13T14:59:50;12.73;;;3.60;;
19679;SDS011;9989;48.962;9.182;2023-10-13T15:02:17;10.80;;;3.50;;
19679;SDS011;9989;48.962;9.182;2023-10-13T15:04:42;8.13;;;3.20;;
19679;SDS011;9989;48.962;9.182;2023-10-13T15:07:08;13.10;;;4.13;;
19679;SDS011;9989;48.962;9.182;2023-10-13T15:09:33;11.20;;;3.27;;
19679;SDS011;9989;48.962;9.182;2023-10-13T15:11:59;10.40;;;3.23;;
19679;SDS011;9989;48.962;9.182;2023-10-13T15:14:30;9.30;;;4.00;;
19679;SDS011;9989;48.962;9.182;2023-10-13T15:16:58;10.93;;;3.43;;
19679;SDS011;9989;48.962;9.182;2023-10-13T15:19:25;10.70;;;3.73;;
19679;SDS011;9989;48.962;9.182;2023-10-13T15:21:51;10.70;;;3.10;;
19679;SDS011;9989;48.962;9.182;2023-10-13T15:24:18;10.97;;;3.40;;
19679;SDS011;9989;48.962;9.182;2023-10-13T15:26:46;9.43;;;3.33;;
19679;SDS011;9989;48.962;9.182;2023-10-13T15:29:16;10.13;;;3.50;;
19679;SDS011;9989;48.962;9.182;2023-10-13T15:31:45;8.73;;;3.10;;
19679;SDS011;9989;48.962;9.182;2023-10-13T15:34:23;9.87;;;3.20;;
19679;SDS011;9989;48.962;9.182;2023-10-13T15:36:51;11.77;;;3.70;;
19679;SDS011;9989;48.962;9.182;2023-10-13T15:39:19;11.73;;;3.43;;
19679;SDS011;9989;48.962;9.182;2023-10-13T15:41:49;9.20;;;3.27;;
19679;SDS011;9989;48.962;9.182;2023-10-13T15:44:18;11.30;;;3.57;;